Terminal Aerodrome Forecast
Issued by NWS Tampa Bay Area, FL

Home | Current Version | Previous Version | Text Only | Print | Product List | Glossary On
Versions: 1 2 3 4 5 6 7 8 9 10 11 12 13 14 15
000
FTUS42 KTBW 211140
TAFFMY
TAF
KFMY 211140Z 2112/2212 VRB04KT P6SM VCSH FEW010 BKN080
     FM211500 28005KT P6SM VCSH SCT030 BKN080
     FM211800 26008KT P6SM VCSH SCT040 BKN080
     FM220100 28005KT P6SM SCT030 BKN080
     FM220400 VRB03KT P6SM SCT015 BKN080=

USA.gov is the U.S. government's official web portal to all federal, state and local government web resources and services.